Cable Innovator — MVEP4 — position and weather

sailwx.info

Track history (hours):
 
Tides and Currents Weather Stations Pressure Air Temp Water Temp Dewpoint Dewpoint Depression Visibility Wind Speed Wind Dir Waves Ship Positions

Cable Innovator

Last reported at 2017-Sep-22 02:00 UTC. Time now 2017-Sep-22 06:27 UTC.
Position N 48°08' W 123°26'.

Length 145.5 m; beam 24 m; draft 8.3 m.

Type: Other ship. MMSI: 233933000.

Date/timePositionNaut miles runAvg speedWind from/ knotsBaromVisibWave heightAir tempDewpointWater temp
2017-Sep-22 02:00N 48°08' W 123°26'0 0.0
2017-Sep-22 01:18N 48°08' W 123°26'0 0.0
2017-Sep-22 00:55N 48°08' W 123°26'0 0.0
2017-Sep-22 00:26N 48°08' W 123°26'0 0.0
2017-Sep-21 23:59N 48°08' W 123°26'0 0.0
2017-Sep-21 23:29N 48°08' W 123°26'0 0.0
2017-Sep-21 22:56N 48°08' W 123°26'0 0.0
2017-Sep-21 22:20N 48°08' W 123°26'0 0.0
2017-Sep-21 21:59N 48°08' W 123°26'0 0.0
2017-Sep-21 21:29N 48°08' W 123°26'0 0.0
2017-Sep-21 20:59N 48°08' W 123°26'0 0.0
2017-Sep-21 20:29N 48°08' W 123°26'0 0.0
2017-Sep-21 19:59N 48°08' W 123°26'0 0.0
2017-Sep-21 19:29N 48°08' W 123°26'0 0.0
2017-Sep-21 18:53N 48°08' W 123°26'0 0.0
2017-Sep-21 18:11N 48°08' W 123°26'0 0.0
2017-Sep-21 17:56N 48°08' W 123°26'0 0.0
2017-Sep-21 17:23N 48°08' W 123°26'0 0.0
2017-Sep-21 16:59N 48°08' W 123°26'0 0.0
2017-Sep-21 16:29N 48°08' W 123°26'0 0.0
2017-Sep-21 16:00N 48°08' W 123°26'0 0.2
2017-Sep-21 15:30N 48°08' W 123°26'2 3.3
2017-Sep-21 15:00N 48°08' W 123°24'3 6.2
2017-Sep-21 14:30N 48°11' W 123°26'3 5.8
2017-Sep-21 14:00N 48°12' W 123°30'3 5.4
2017-Sep-21 13:28N 48°13' W 123°34'3 5.7
2017-Sep-21 12:59N 48°13' W 123°38'3 6.0
2017-Sep-21 12:30N 48°13' W 123°42'3 6.2
2017-Sep-21 12:00N 48°13' W 123°47'3 6.0
2017-Sep-21 11:30N 48°13' W 123°52'3 5.8
2017-Sep-21 11:00N 48°14' W 123°56'3 6.0
2017-Sep-21 10:30N 48°15' W 124°00'3 5.9
2017-Sep-21 10:00N 48°16' W 124°04'3 6.3
2017-Sep-21 09:30N 48°18' W 124°08'3 6.4
2017-Sep-21 09:00N 48°19' W 124°13'3 6.3
2017-Sep-21 08:30N 48°20' W 124°17'3 6.6
2017-Sep-21 08:00N 48°22' W 124°21'3 6.7
2017-Sep-21 07:30N 48°23' W 124°26'3 6.3
2017-Sep-21 07:00N 48°25' W 124°30'3 6.4
2017-Sep-21 06:30N 48°26' W 124°35'3 6.2
2017-Sep-21 06:00N 48°27' W 124°39'3 6.4
2017-Sep-21 05:30N 48°28' W 124°43'3 6.3
2017-Sep-21 05:00N 48°29' W 124°48'3 6.4
2017-Sep-21 04:30N 48°29' W 124°53'3 6.7
2017-Sep-21 04:00N 48°29' W 124°58'3 7.0
2017-Sep-21 03:30N 48°29' W 125°03'3 6.5
2017-Sep-21 02:59N 48°29' W 125°08'3 7.1
2017-Sep-21 02:30N 48°29' W 125°13'4 7.1
2017-Sep-21 02:00N 48°29' W 125°19'4 7.1
2017-Sep-21 01:30N 48°30' W 125°24'4 7.1
2017-Sep-21 01:00N 48°30' W 125°29'4 7.2
2017-Sep-21 00:30N 48°31' W 125°35'4 7.4
2017-Sep-21 00:00N 48°31' W 125°40'0 0.8
2017-Sep-20 23:30N 48°31' W 125°41'0 0.0
2017-Sep-20 23:00N 48°31' W 125°41'3 5.2
2017-Sep-20 22:30N 48°31' W 125°45'4 8.4
2017-Sep-20 22:00N 48°32' W 125°51'4 8.7
2017-Sep-20 21:30N 48°32' W 125°58'4 8.3
2017-Sep-20 21:00N 48°33' W 126°04'4 7.2
2017-Sep-20 20:30N 48°33' W 126°09'3 6.8
2017-Sep-20 20:00N 48°34' W 126°14'3 6.4
2017-Sep-20 19:29N 48°34' W 126°19'3 6.5
2017-Sep-20 18:59N 48°34' W 126°24'3 6.4
2017-Sep-20 18:29N 48°35' W 126°29'96 7.7
2017-Sep-20 06:00N 48°42' W 128°54'0 0.0 330 / 101006.5 12.0 17.0
2017-Sep-19 12:00N 48°42' W 128°54'0 0.0 350 / 201011.3 5.4 14.010.211.0
2017-Sep-19 06:00N 48°42' W 128°54'0 0.0 340 / 241004.5 14.2 17.0
2017-Sep-18 12:00N 48°42' W 128°54'0 0.0 240 / 201008.2 5.4 14.0 9.112.0
2017-Sep-18 06:00N 48°42' W 128°54'0 0.0 260 / 131007.6 13.5 17.0
2017-Sep-17 00:00N 48°42' W 128°54'20 1.7 330 / 21015.610.8 17.0 18.0
2017-Sep-16 12:00N 48°42' W 128°24'6612.4 010 / 191020.410.8 14.510.711.0
2017-Sep-16 06:40N 48°37' W 126°44'712.4
2017-Sep-16 06:06N 48°36' W 126°34'112.1
2017-Sep-16 06:00N 48°36' W 126°32'151957.3
2017-Sep-16 06:00N 48°30' W 126°12'918.9 320 / 131018.010.8 15.0 17.0
2017-Sep-16 05:30N 48°36' W 126°23'612.3
2017-Sep-16 05:00N 48°35' W 126°14'612.3
2017-Sep-16 04:30N 48°35' W 126°04'612.2
2017-Sep-16 04:00N 48°34' W 125°55'612.5
2017-Sep-16 03:29N 48°33' W 125°46'612.2
2017-Sep-16 03:00N 48°33' W 125°37'612.2
2017-Sep-16 02:30N 48°32' W 125°27'612.4
2017-Sep-16 02:00N 48°32' W 125°18'612.3
2017-Sep-16 01:30N 48°31' W 125°09'612.4
2017-Sep-16 01:00N 48°31' W 124°60'612.7
2017-Sep-16 00:30N 48°31' W 124°50'612.4
2017-Sep-16 00:00N 48°30' W 124°41'612.9
2017-Sep-15 23:30N 48°27' W 124°32'612.7
2017-Sep-15 23:00N 48°25' W 124°23'612.4
2017-Sep-15 22:30N 48°23' W 124°14'612.7
2017-Sep-15 22:00N 48°20' W 124°06'612.4
2017-Sep-15 21:30N 48°18' W 123°57'612.9
2017-Sep-15 21:00N 48°17' W 123°48'713.1
2017-Sep-15 20:30N 48°16' W 123°38'611.2
2017-Sep-15 20:00N 48°17' W 123°29'612.0
2017-Sep-15 19:30N 48°22' W 123°25'3 6.3
2017-Sep-15 18:59N 48°25' W 123°23'0 0.0
2017-Sep-15 18:29N 48°25' W 123°23'0 0.0
2017-Sep-15 17:59N 48°25' W 123°23'0 0.0
2017-Sep-15 17:29N 48°25' W 123°23'0 0.0
2017-Sep-15 16:59N 48°25' W 123°23'0 0.0
2017-Sep-15 16:29N 48°25' W 123°23'0 0.0
2017-Sep-15 15:58N 48°25' W 123°23'0 0.0
2017-Sep-15 15:28N 48°25' W 123°23'0 0.0
2017-Sep-15 14:58N 48°25' W 123°23'0 0.0
2017-Sep-15 14:28N 48°25' W 123°23'0 0.0
2017-Sep-15 13:58N 48°25' W 123°23'0 0.0
2017-Sep-15 13:28N 48°25' W 123°23'0 0.0
2017-Sep-15 12:58N 48°25' W 123°23'0 0.0
2017-Sep-15 12:28N 48°25' W 123°23'0 0.0
2017-Sep-15 11:58N 48°25' W 123°23'0 0.0
2017-Sep-15 11:28N 48°25' W 123°23'0 0.0
2017-Sep-15 10:58N 48°25' W 123°23'0 0.0
2017-Sep-15 10:28N 48°25' W 123°23'0 0.0
2017-Sep-15 09:58N 48°25' W 123°23'0 0.0
2017-Sep-15 09:28N 48°25' W 123°23'0 0.0
2017-Sep-15 08:58N 48°25' W 123°23'0 0.0
2017-Sep-15 08:28N 48°25' W 123°23'0 0.0
2017-Sep-15 07:58N 48°25' W 123°23'0 0.0
2017-Sep-15 07:25N 48°25' W 123°23'0 0.0
2017-Sep-15 06:58N 48°25' W 123°23'0 0.0
2017-Sep-15 06:28N 48°25' W 123°23'0 0.0
2017-Sep-15 05:58N 48°25' W 123°23'0 0.0
2017-Sep-15 05:28N 48°25' W 123°23'0 0.0
2017-Sep-15 04:58N 48°25' W 123°23'0 0.0
2017-Sep-15 04:28N 48°25' W 123°23'0 0.0
2017-Sep-15 03:58N 48°25' W 123°23'0 0.0
2017-Sep-15 03:28N 48°25' W 123°23'0 0.0
2017-Sep-15 02:58N 48°25' W 123°23'0 0.0
2017-Sep-15 02:28N 48°25' W 123°23'0 0.0
2017-Sep-15 01:58N 48°25' W 123°23'0 0.0
2017-Sep-15 01:28N 48°25' W 123°23'0 0.0
2017-Sep-15 00:58N 48°25' W 123°23'0 0.0
2017-Sep-15 00:28N 48°25' W 123°23'0 0.0
2017-Sep-14 23:58N 48°25' W 123°23'0 0.0
2017-Sep-14 23:28N 48°25' W 123°23'0 0.0
2017-Sep-14 22:58N 48°25' W 123°23'0 0.0
2017-Sep-14 22:28N 48°25' W 123°23'0 0.0
2017-Sep-14 21:58N 48°25' W 123°23'0 0.0
2017-Sep-14 21:28N 48°25' W 123°23'0 0.0
2017-Sep-14 20:58N 48°25' W 123°23'0 0.0
2017-Sep-14 20:28N 48°25' W 123°23'0 0.0
2017-Sep-14 19:58N 48°25' W 123°23'0 0.0
2017-Sep-14 19:28N 48°25' W 123°23'0 0.0
2017-Sep-14 18:58N 48°25' W 123°23'0 0.0
2017-Sep-14 18:28N 48°25' W 123°23'0 0.0
2017-Sep-14 17:58N 48°25' W 123°23'0 0.0
2017-Sep-14 17:22N 48°25' W 123°23'0 0.0
2017-Sep-14 16:58N 48°25' W 123°23'0 0.0
2017-Sep-14 16:28N 48°25' W 123°23'0 0.0
2017-Sep-14 15:58N 48°25' W 123°23'0 0.0
2017-Sep-14 15:28N 48°25' W 123°23'0 0.0
2017-Sep-14 14:58N 48°25' W 123°23'0 0.0
2017-Sep-14 14:28N 48°25' W 123°23'0 0.0
2017-Sep-14 13:58N 48°25' W 123°23'0 0.0
2017-Sep-14 13:28N 48°25' W 123°23'0 0.0
2017-Sep-14 12:58N 48°25' W 123°23'0 0.0
2017-Sep-14 12:28N 48°25' W 123°23'0 0.0
2017-Sep-14 11:58N 48°25' W 123°23'0 0.0
2017-Sep-14 11:28N 48°25' W 123°23'0 0.0
2017-Sep-14 10:52N 48°25' W 123°23'0 0.0
2017-Sep-14 10:28N 48°25' W 123°23'0 0.0
2017-Sep-14 10:01N 48°25' W 123°23'0 0.0
2017-Sep-14 09:28N 48°25' W 123°23'0 0.0
2017-Sep-14 08:58N 48°25' W 123°23'0 0.0
2017-Sep-14 08:27N 48°25' W 123°23'0 0.0
2017-Sep-14 08:01N 48°25' W 123°23'0 0.0
2017-Sep-14 07:28N 48°25' W 123°23'0 0.0
2017-Sep-14 07:01N 48°25' W 123°23'0 0.0
2017-Sep-14 06:30N 48°25' W 123°23'0 0.0
2017-Sep-14 06:00N 48°25' W 123°23'0 0.0
2017-Sep-14 05:30N 48°25' W 123°23'0 0.0
2017-Sep-14 05:01N 48°25' W 123°23'0 0.0
2017-Sep-14 04:30N 48°25' W 123°23'0 0.0
2017-Sep-14 04:00N 48°25' W 123°23'0 0.0
2017-Sep-14 03:24N 48°25' W 123°23'0 0.0
2017-Sep-14 03:00N 48°25' W 123°23'0 0.0
2017-Sep-14 02:30N 48°25' W 123°23'0 0.0
2017-Sep-14 02:00N 48°25' W 123°23'0 0.0
2017-Sep-14 01:30N 48°25' W 123°23'0 0.0
2017-Sep-14 01:00N 48°25' W 123°23'0 0.0
2017-Sep-14 00:30N 48°25' W 123°23'0 0.0
2017-Sep-14 00:00N 48°25' W 123°23'0 0.0
2017-Sep-13 23:30N 48°25' W 123°23'0 0.0
2017-Sep-13 23:00N 48°25' W 123°23'0 0.0
2017-Sep-13 22:30N 48°25' W 123°23'0 0.0
2017-Sep-13 22:00N 48°25' W 123°23'0 0.0
2017-Sep-13 21:30N 48°25' W 123°23'0 0.0
2017-Sep-13 21:00N 48°25' W 123°23'0 0.0
2017-Sep-13 20:30N 48°25' W 123°23'0 0.0
2017-Sep-13 20:00N 48°25' W 123°23'0 0.0
2017-Sep-13 19:30N 48°25' W 123°23'0 0.0
2017-Sep-13 19:00N 48°25' W 123°23'0 0.0
2017-Sep-13 18:30N 48°25' W 123°23'0 0.0
2017-Sep-13 18:00N 48°25' W 123°23'0 0.0
2017-Sep-13 17:30N 48°25' W 123°23'0 0.0
2017-Sep-13 17:00N 48°25' W 123°23'0 0.0
2017-Sep-13 16:30N 48°25' W 123°23'0 0.0
2017-Sep-13 15:57N 48°25' W 123°23'0 0.0
2017-Sep-13 15:30N 48°25' W 123°23'0 0.0
2017-Sep-13 15:00N 48°25' W 123°23'0 0.0
2017-Sep-13 14:30N 48°25' W 123°23'0 0.0
2017-Sep-13 14:00N 48°25' W 123°23'0 0.0
2017-Sep-13 13:30N 48°25' W 123°23'0 0.0
2017-Sep-13 13:00N 48°25' W 123°23'0 0.0
2017-Sep-13 12:30N 48°25' W 123°23'0 0.0
2017-Sep-13 12:00N 48°25' W 123°23'0 0.0
2017-Sep-13 11:30N 48°25' W 123°23'0 0.0
2017-Sep-13 11:00N 48°25' W 123°23'0 0.0
2017-Sep-13 10:30N 48°25' W 123°23'0 0.0
2017-Sep-13 10:00N 48°25' W 123°23'0 0.0
2017-Sep-13 09:30N 48°25' W 123°23'0 0.0
2017-Sep-13 09:00N 48°25' W 123°23'0 0.0
2017-Sep-13 08:30N 48°25' W 123°23'0 0.0
2017-Sep-13 08:00N 48°25' W 123°23'0 0.0
2017-Sep-13 07:30N 48°25' W 123°23'0 0.0
2017-Sep-13 07:00N 48°25' W 123°23'0 0.0
2017-Sep-13 06:30N 48°25' W 123°23'0 0.0
2017-Sep-13 06:00N 48°25' W 123°23'0 0.0
2017-Sep-13 05:30N 48°25' W 123°23'0 0.0
2017-Sep-13 05:00N 48°25' W 123°23'0 0.0
2017-Sep-13 04:30N 48°25' W 123°23'0 0.0
2017-Sep-13 04:00N 48°25' W 123°23'0 0.0
2017-Sep-13 03:30N 48°25' W 123°23'0 0.0
2017-Sep-13 03:00N 48°25' W 123°23'0 0.0
2017-Sep-13 02:30N 48°25' W 123°23'0 0.0
2017-Sep-13 02:00N 48°25' W 123°23'0 0.0
2017-Sep-13 01:30N 48°25' W 123°23'0 0.0
2017-Sep-13 01:00N 48°25' W 123°23'0 0.0
2017-Sep-13 00:30N 48°25' W 123°23'0 0.0
2017-Sep-13 00:00N 48°25' W 123°23'0 0.0
2017-Sep-12 23:30N 48°25' W 123°23'0 0.0
2017-Sep-12 23:00N 48°25' W 123°23'0 0.0
2017-Sep-12 22:30N 48°25' W 123°23'0 0.0
2017-Sep-12 22:00N 48°25' W 123°23'0 0.0
2017-Sep-12 21:30N 48°25' W 123°23'0 0.0
2017-Sep-12 21:00N 48°25' W 123°23'0 0.0
2017-Sep-12 20:30N 48°25' W 123°23'0 0.0
2017-Sep-12 20:00N 48°25' W 123°23'0 0.0
2017-Sep-12 19:30N 48°25' W 123°23'0 0.0
2017-Sep-12 19:00N 48°25' W 123°23'0 0.0
2017-Sep-12 18:30N 48°25' W 123°23'0 0.0
2017-Sep-12 18:00N 48°25' W 123°23'0 0.0
2017-Sep-12 17:30N 48°25' W 123°23'0 0.0
2017-Sep-12 17:00N 48°25' W 123°23'0 0.0
2017-Sep-12 16:30N 48°25' W 123°23'0 0.0
2017-Sep-12 16:00N 48°25' W 123°23'0 0.0
2017-Sep-12 15:27N 48°25' W 123°23'0 0.0
2017-Sep-12 15:00N 48°25' W 123°23'0 0.0
2017-Sep-12 14:30N 48°25' W 123°23'0 0.0
2017-Sep-12 14:00N 48°25' W 123°23'0 0.0
2017-Sep-12 13:27N 48°25' W 123°23'0 0.0
2017-Sep-12 13:00N 48°25' W 123°23'0 0.0
2017-Sep-12 12:30N 48°25' W 123°23'0 0.0
2017-Sep-12 12:00N 48°25' W 123°23'0 0.0
2017-Sep-12 11:30N 48°25' W 123°23'0 0.0
2017-Sep-12 11:00N 48°25' W 123°23'0 0.0
2017-Sep-12 10:30N 48°25' W 123°23'0 0.0
2017-Sep-12 10:00N 48°25' W 123°23'0 0.0
2017-Sep-12 09:30N 48°25' W 123°23'0 0.0
2017-Sep-12 09:00N 48°25' W 123°23'0 0.0
2017-Sep-12 08:30N 48°25' W 123°23'0 0.0
2017-Sep-12 08:00N 48°25' W 123°23'0 0.0
2017-Sep-12 07:30N 48°25' W 123°23'0 0.0
2017-Sep-12 07:00N 48°25' W 123°23'0 0.0
2017-Sep-12 06:30N 48°25' W 123°23'0 0.0
2017-Sep-12 06:00N 48°25' W 123°23'0 0.0
2017-Sep-12 05:30N 48°25' W 123°23'0 0.0
2017-Sep-12 05:00N 48°25' W 123°23'0 0.0
2017-Sep-12 04:30N 48°25' W 123°23'0 0.0
2017-Sep-12 04:00N 48°25' W 123°23'0 0.0
2017-Sep-12 03:30N 48°25' W 123°23'0 0.0
2017-Sep-12 03:00N 48°25' W 123°23'0 0.0
2017-Sep-12 02:30N 48°25' W 123°23'  
Track history (hours):
 
Tides and Currents Weather Stations Pressure Air Temp Water Temp Dewpoint Dewpoint Depression Visibility Wind Speed Wind Dir Waves Ship Positions

Cable Innovator

Last reported at 2017-Sep-22 02:00 UTC. Time now 2017-Sep-22 06:27 UTC.
Position N 48°08' W 123°26'.

Length 145.5 m; beam 24 m; draft 8.3 m.

Type: Other ship. MMSI: 233933000.

Date/timePositionNaut miles runAvg speedWind from/ knotsBaromVisibWave heightAir tempDewpointWater temp
2017-Sep-22 02:00N 48°08' W 123°26'0 0.0
2017-Sep-22 01:18N 48°08' W 123°26'0 0.0
2017-Sep-22 00:55N 48°08' W 123°26'0 0.0
2017-Sep-22 00:26N 48°08' W 123°26'0 0.0
2017-Sep-21 23:59N 48°08' W 123°26'0 0.0
2017-Sep-21 23:29N 48°08' W 123°26'0 0.0
2017-Sep-21 22:56N 48°08' W 123°26'0 0.0
2017-Sep-21 22:20N 48°08' W 123°26'0 0.0
2017-Sep-21 21:59N 48°08' W 123°26'0 0.0
2017-Sep-21 21:29N 48°08' W 123°26'0 0.0
2017-Sep-21 20:59N 48°08' W 123°26'0 0.0
2017-Sep-21 20:29N 48°08' W 123°26'0 0.0
2017-Sep-21 19:59N 48°08' W 123°26'0 0.0
2017-Sep-21 19:29N 48°08' W 123°26'0 0.0
2017-Sep-21 18:53N 48°08' W 123°26'0 0.0
2017-Sep-21 18:11N 48°08' W 123°26'0 0.0
2017-Sep-21 17:56N 48°08' W 123°26'0 0.0
2017-Sep-21 17:23N 48°08' W 123°26'0 0.0
2017-Sep-21 16:59N 48°08' W 123°26'0 0.0
2017-Sep-21 16:29N 48°08' W 123°26'0 0.0
2017-Sep-21 16:00N 48°08' W 123°26'0 0.2
2017-Sep-21 15:30N 48°08' W 123°26'2 3.3
2017-Sep-21 15:00N 48°08' W 123°24'3 6.2
2017-Sep-21 14:30N 48°11' W 123°26'3 5.8
2017-Sep-21 14:00N 48°12' W 123°30'3 5.4
2017-Sep-21 13:28N 48°13' W 123°34'3 5.7
2017-Sep-21 12:59N 48°13' W 123°38'3 6.0
2017-Sep-21 12:30N 48°13' W 123°42'3 6.2
2017-Sep-21 12:00N 48°13' W 123°47'3 6.0
2017-Sep-21 11:30N 48°13' W 123°52'3 5.8
2017-Sep-21 11:00N 48°14' W 123°56'3 6.0
2017-Sep-21 10:30N 48°15' W 124°00'3 5.9
2017-Sep-21 10:00N 48°16' W 124°04'3 6.3
2017-Sep-21 09:30N 48°18' W 124°08'3 6.4
2017-Sep-21 09:00N 48°19' W 124°13'3 6.3
2017-Sep-21 08:30N 48°20' W 124°17'3 6.6
2017-Sep-21 08:00N 48°22' W 124°21'3 6.7
2017-Sep-21 07:30N 48°23' W 124°26'3 6.3
2017-Sep-21 07:00N 48°25' W 124°30'3 6.4
2017-Sep-21 06:30N 48°26' W 124°35'3 6.2
2017-Sep-21 06:00N 48°27' W 124°39'3 6.4
2017-Sep-21 05:30N 48°28' W 124°43'3 6.3
2017-Sep-21 05:00N 48°29' W 124°48'3 6.4
2017-Sep-21 04:30N 48°29' W 124°53'3 6.7
2017-Sep-21 04:00N 48°29' W 124°58'3 7.0
2017-Sep-21 03:30N 48°29' W 125°03'3 6.5
2017-Sep-21 02:59N 48°29' W 125°08'3 7.1
2017-Sep-21 02:30N 48°29' W 125°13'4 7.1
2017-Sep-21 02:00N 48°29' W 125°19'4 7.1
2017-Sep-21 01:30N 48°30' W 125°24'4 7.1
2017-Sep-21 01:00N 48°30' W 125°29'4 7.2
2017-Sep-21 00:30N 48°31' W 125°35'4 7.4
2017-Sep-21 00:00N 48°31' W 125°40'0 0.8
2017-Sep-20 23:30N 48°31' W 125°41'0 0.0
2017-Sep-20 23:00N 48°31' W 125°41'3 5.2
2017-Sep-20 22:30N 48°31' W 125°45'4 8.4
2017-Sep-20 22:00N 48°32' W 125°51'4 8.7
2017-Sep-20 21:30N 48°32' W 125°58'4 8.3
2017-Sep-20 21:00N 48°33' W 126°04'4 7.2
2017-Sep-20 20:30N 48°33' W 126°09'3 6.8
2017-Sep-20 20:00N 48°34' W 126°14'3 6.4
2017-Sep-20 19:29N 48°34' W 126°19'3 6.5
2017-Sep-20 18:59N 48°34' W 126°24'3 6.4
2017-Sep-20 18:29N 48°35' W 126°29'96 7.7
2017-Sep-20 06:00N 48°42' W 128°54'0 0.0 330 / 101006.5 12.0 17.0
2017-Sep-19 12:00N 48°42' W 128°54'0 0.0 350 / 201011.3 5.4 14.010.211.0
2017-Sep-19 06:00N 48°42' W 128°54'0 0.0 340 / 241004.5 14.2 17.0
2017-Sep-18 12:00N 48°42' W 128°54'0 0.0 240 / 201008.2 5.4 14.0 9.112.0
2017-Sep-18 06:00N 48°42' W 128°54'0 0.0 260 / 131007.6 13.5 17.0
2017-Sep-17 00:00N 48°42' W 128°54'20 1.7 330 / 21015.610.8 17.0 18.0
2017-Sep-16 12:00N 48°42' W 128°24'6612.4 010 / 191020.410.8 14.510.711.0
2017-Sep-16 06:40N 48°37' W 126°44'712.4
2017-Sep-16 06:06N 48°36' W 126°34'112.1
2017-Sep-16 06:00N 48°36' W 126°32'151957.3
2017-Sep-16 06:00N 48°30' W 126°12'918.9 320 / 131018.010.8 15.0 17.0
2017-Sep-16 05:30N 48°36' W 126°23'612.3
2017-Sep-16 05:00N 48°35' W 126°14'612.3
2017-Sep-16 04:30N 48°35' W 126°04'612.2
2017-Sep-16 04:00N 48°34' W 125°55'612.5
2017-Sep-16 03:29N 48°33' W 125°46'612.2
2017-Sep-16 03:00N 48°33' W 125°37'612.2
2017-Sep-16 02:30N 48°32' W 125°27'612.4
2017-Sep-16 02:00N 48°32' W 125°18'612.3
2017-Sep-16 01:30N 48°31' W 125°09'612.4
2017-Sep-16 01:00N 48°31' W 124°60'612.7
2017-Sep-16 00:30N 48°31' W 124°50'612.4
2017-Sep-16 00:00N 48°30' W 124°41'612.9
2017-Sep-15 23:30N 48°27' W 124°32'612.7
2017-Sep-15 23:00N 48°25' W 124°23'612.4
2017-Sep-15 22:30N 48°23' W 124°14'612.7
2017-Sep-15 22:00N 48°20' W 124°06'612.4
2017-Sep-15 21:30N 48°18' W 123°57'612.9
2017-Sep-15 21:00N 48°17' W 123°48'713.1
2017-Sep-15 20:30N 48°16' W 123°38'611.2
2017-Sep-15 20:00N 48°17' W 123°29'612.0
2017-Sep-15 19:30N 48°22' W 123°25'3 6.3
2017-Sep-15 18:59N 48°25' W 123°23'0 0.0
2017-Sep-15 18:29N 48°25' W 123°23'0 0.0
2017-Sep-15 17:59N 48°25' W 123°23'0 0.0
2017-Sep-15 17:29N 48°25' W 123°23'0 0.0
2017-Sep-15 16:59N 48°25' W 123°23'0 0.0
2017-Sep-15 16:29N 48°25' W 123°23'0 0.0
2017-Sep-15 15:58N 48°25' W 123°23'0 0.0
2017-Sep-15 15:28N 48°25' W 123°23'0 0.0
2017-Sep-15 14:58N 48°25' W 123°23'0 0.0
2017-Sep-15 14:28N 48°25' W 123°23'0 0.0
2017-Sep-15 13:58N 48°25' W 123°23'0 0.0
2017-Sep-15 13:28N 48°25' W 123°23'0 0.0
2017-Sep-15 12:58N 48°25' W 123°23'0 0.0
2017-Sep-15 12:28N 48°25' W 123°23'0 0.0
2017-Sep-15 11:58N 48°25' W 123°23'0 0.0
2017-Sep-15 11:28N 48°25' W 123°23'0 0.0
2017-Sep-15 10:58N 48°25' W 123°23'0 0.0
2017-Sep-15 10:28N 48°25' W 123°23'0 0.0
2017-Sep-15 09:58N 48°25' W 123°23'0 0.0
2017-Sep-15 09:28N 48°25' W 123°23'0 0.0
2017-Sep-15 08:58N 48°25' W 123°23'0 0.0
2017-Sep-15 08:28N 48°25' W 123°23'0 0.0
2017-Sep-15 07:58N 48°25' W 123°23'0 0.0
2017-Sep-15 07:25N 48°25' W 123°23'0 0.0
2017-Sep-15 06:58N 48°25' W 123°23'0 0.0
2017-Sep-15 06:28N 48°25' W 123°23'0 0.0
2017-Sep-15 05:58N 48°25' W 123°23'0 0.0
2017-Sep-15 05:28N 48°25' W 123°23'0 0.0
2017-Sep-15 04:58N 48°25' W 123°23'0 0.0
2017-Sep-15 04:28N 48°25' W 123°23'0 0.0
2017-Sep-15 03:58N 48°25' W 123°23'0 0.0
2017-Sep-15 03:28N 48°25' W 123°23'0 0.0
2017-Sep-15 02:58N 48°25' W 123°23'0 0.0
2017-Sep-15 02:28N 48°25' W 123°23'0 0.0
2017-Sep-15 01:58N 48°25' W 123°23'0 0.0
2017-Sep-15 01:28N 48°25' W 123°23'0 0.0
2017-Sep-15 00:58N 48°25' W 123°23'0 0.0
2017-Sep-15 00:28N 48°25' W 123°23'0 0.0
2017-Sep-14 23:58N 48°25' W 123°23'0 0.0
2017-Sep-14 23:28N 48°25' W 123°23'0 0.0
2017-Sep-14 22:58N 48°25' W 123°23'0 0.0
2017-Sep-14 22:28N 48°25' W 123°23'0 0.0
2017-Sep-14 21:58N 48°25' W 123°23'0 0.0
2017-Sep-14 21:28N 48°25' W 123°23'0 0.0
2017-Sep-14 20:58N 48°25' W 123°23'0 0.0
2017-Sep-14 20:28N 48°25' W 123°23'0 0.0
2017-Sep-14 19:58N 48°25' W 123°23'0 0.0
2017-Sep-14 19:28N 48°25' W 123°23'0 0.0
2017-Sep-14 18:58N 48°25' W 123°23'0 0.0
2017-Sep-14 18:28N 48°25' W 123°23'0 0.0
2017-Sep-14 17:58N 48°25' W 123°23'0 0.0
2017-Sep-14 17:22N 48°25' W 123°23'0 0.0
2017-Sep-14 16:58N 48°25' W 123°23'0 0.0
2017-Sep-14 16:28N 48°25' W 123°23'0 0.0
2017-Sep-14 15:58N 48°25' W 123°23'0 0.0
2017-Sep-14 15:28N 48°25' W 123°23'0 0.0
2017-Sep-14 14:58N 48°25' W 123°23'0 0.0
2017-Sep-14 14:28N 48°25' W 123°23'0 0.0
2017-Sep-14 13:58N 48°25' W 123°23'0 0.0
2017-Sep-14 13:28N 48°25' W 123°23'0 0.0
2017-Sep-14 12:58N 48°25' W 123°23'0 0.0
2017-Sep-14 12:28N 48°25' W 123°23'0 0.0
2017-Sep-14 11:58N 48°25' W 123°23'0 0.0
2017-Sep-14 11:28N 48°25' W 123°23'0 0.0
2017-Sep-14 10:52N 48°25' W 123°23'0 0.0
2017-Sep-14 10:28N 48°25' W 123°23'0 0.0
2017-Sep-14 10:01N 48°25' W 123°23'0 0.0
2017-Sep-14 09:28N 48°25' W 123°23'0 0.0
2017-Sep-14 08:58N 48°25' W 123°23'0 0.0
2017-Sep-14 08:27N 48°25' W 123°23'0 0.0
2017-Sep-14 08:01N 48°25' W 123°23'0 0.0
2017-Sep-14 07:28N 48°25' W 123°23'0 0.0
2017-Sep-14 07:01N 48°25' W 123°23'0 0.0
2017-Sep-14 06:30N 48°25' W 123°23'0 0.0
2017-Sep-14 06:00N 48°25' W 123°23'0 0.0
2017-Sep-14 05:30N 48°25' W 123°23'0 0.0
2017-Sep-14 05:01N 48°25' W 123°23'0 0.0
2017-Sep-14 04:30N 48°25' W 123°23'0 0.0
2017-Sep-14 04:00N 48°25' W 123°23'0 0.0
2017-Sep-14 03:24N 48°25' W 123°23'0 0.0
2017-Sep-14 03:00N 48°25' W 123°23'0 0.0
2017-Sep-14 02:30N 48°25' W 123°23'0 0.0
2017-Sep-14 02:00N 48°25' W 123°23'0 0.0
2017-Sep-14 01:30N 48°25' W 123°23'0 0.0
2017-Sep-14 01:00N 48°25' W 123°23'0 0.0
2017-Sep-14 00:30N 48°25' W 123°23'0 0.0
2017-Sep-14 00:00N 48°25' W 123°23'0 0.0
2017-Sep-13 23:30N 48°25' W 123°23'0 0.0
2017-Sep-13 23:00N 48°25' W 123°23'0 0.0
2017-Sep-13 22:30N 48°25' W 123°23'0 0.0
2017-Sep-13 22:00N 48°25' W 123°23'0 0.0
2017-Sep-13 21:30N 48°25' W 123°23'0 0.0
2017-Sep-13 21:00N 48°25' W 123°23'0 0.0
2017-Sep-13 20:30N 48°25' W 123°23'0 0.0
2017-Sep-13 20:00N 48°25' W 123°23'0 0.0
2017-Sep-13 19:30N 48°25' W 123°23'0 0.0
2017-Sep-13 19:00N 48°25' W 123°23'0 0.0
2017-Sep-13 18:30N 48°25' W 123°23'0 0.0
2017-Sep-13 18:00N 48°25' W 123°23'0 0.0
2017-Sep-13 17:30N 48°25' W 123°23'0 0.0
2017-Sep-13 17:00N 48°25' W 123°23'0 0.0
2017-Sep-13 16:30N 48°25' W 123°23'0 0.0
2017-Sep-13 15:57N 48°25' W 123°23'0 0.0
2017-Sep-13 15:30N 48°25' W 123°23'0 0.0
2017-Sep-13 15:00N 48°25' W 123°23'0 0.0
2017-Sep-13 14:30N 48°25' W 123°23'0 0.0
2017-Sep-13 14:00N 48°25' W 123°23'0 0.0
2017-Sep-13 13:30N 48°25' W 123°23'0 0.0
2017-Sep-13 13:00N 48°25' W 123°23'0 0.0
2017-Sep-13 12:30N 48°25' W 123°23'0 0.0
2017-Sep-13 12:00N 48°25' W 123°23'0 0.0
2017-Sep-13 11:30N 48°25' W 123°23'0 0.0
2017-Sep-13 11:00N 48°25' W 123°23'0 0.0
2017-Sep-13 10:30N 48°25' W 123°23'0 0.0
2017-Sep-13 10:00N 48°25' W 123°23'0 0.0
2017-Sep-13 09:30N 48°25' W 123°23'0 0.0
2017-Sep-13 09:00N 48°25' W 123°23'0 0.0
2017-Sep-13 08:30N 48°25' W 123°23'0 0.0
2017-Sep-13 08:00N 48°25' W 123°23'0 0.0
2017-Sep-13 07:30N 48°25' W 123°23'0 0.0
2017-Sep-13 07:00N 48°25' W 123°23'0 0.0
2017-Sep-13 06:30N 48°25' W 123°23'0 0.0
2017-Sep-13 06:00N 48°25' W 123°23'0 0.0
2017-Sep-13 05:30N 48°25' W 123°23'0 0.0
2017-Sep-13 05:00N 48°25' W 123°23'0 0.0
2017-Sep-13 04:30N 48°25' W 123°23'0 0.0
2017-Sep-13 04:00N 48°25' W 123°23'0 0.0
2017-Sep-13 03:30N 48°25' W 123°23'0 0.0
2017-Sep-13 03:00N 48°25' W 123°23'0 0.0
2017-Sep-13 02:30N 48°25' W 123°23'0 0.0
2017-Sep-13 02:00N 48°25' W 123°23'0 0.0
2017-Sep-13 01:30N 48°25' W 123°23'0 0.0
2017-Sep-13 01:00N 48°25' W 123°23'0 0.0
2017-Sep-13 00:30N 48°25' W 123°23'0 0.0
2017-Sep-13 00:00N 48°25' W 123°23'0 0.0
2017-Sep-12 23:30N 48°25' W 123°23'0 0.0
2017-Sep-12 23:00N 48°25' W 123°23'0 0.0
2017-Sep-12 22:30N 48°25' W 123°23'0 0.0
2017-Sep-12 22:00N 48°25' W 123°23'0 0.0
2017-Sep-12 21:30N 48°25' W 123°23'0 0.0
2017-Sep-12 21:00N 48°25' W 123°23'0 0.0
2017-Sep-12 20:30N 48°25' W 123°23'0 0.0
2017-Sep-12 20:00N 48°25' W 123°23'0 0.0
2017-Sep-12 19:30N 48°25' W 123°23'0 0.0
2017-Sep-12 19:00N 48°25' W 123°23'0 0.0
2017-Sep-12 18:30N 48°25' W 123°23'0 0.0
2017-Sep-12 18:00N 48°25' W 123°23'0 0.0
2017-Sep-12 17:30N 48°25' W 123°23'0 0.0
2017-Sep-12 17:00N 48°25' W 123°23'0 0.0
2017-Sep-12 16:30N 48°25' W 123°23'0 0.0
2017-Sep-12 16:00N 48°25' W 123°23'0 0.0
2017-Sep-12 15:27N 48°25' W 123°23'0 0.0
2017-Sep-12 15:00N 48°25' W 123°23'0 0.0
2017-Sep-12 14:30N 48°25' W 123°23'0 0.0
2017-Sep-12 14:00N 48°25' W 123°23'0 0.0
2017-Sep-12 13:27N 48°25' W 123°23'0 0.0
2017-Sep-12 13:00N 48°25' W 123°23'0 0.0
2017-Sep-12 12:30N 48°25' W 123°23'0 0.0
2017-Sep-12 12:00N 48°25' W 123°23'0 0.0
2017-Sep-12 11:30N 48°25' W 123°23'0 0.0
2017-Sep-12 11:00N 48°25' W 123°23'0 0.0
2017-Sep-12 10:30N 48°25' W 123°23'0 0.0
2017-Sep-12 10:00N 48°25' W 123°23'0 0.0
2017-Sep-12 09:30N 48°25' W 123°23'0 0.0
2017-Sep-12 09:00N 48°25' W 123°23'0 0.0
2017-Sep-12 08:30N 48°25' W 123°23'0 0.0
2017-Sep-12 08:00N 48°25' W 123°23'0 0.0
2017-Sep-12 07:30N 48°25' W 123°23'0 0.0
2017-Sep-12 07:00N 48°25' W 123°23'0 0.0
2017-Sep-12 06:30N 48°25' W 123°23'0 0.0
2017-Sep-12 06:00N 48°25' W 123°23'0 0.0
2017-Sep-12 05:30N 48°25' W 123°23'0 0.0
2017-Sep-12 05:00N 48°25' W 123°23'0 0.0
2017-Sep-12 04:30N 48°25' W 123°23'0 0.0
2017-Sep-12 04:00N 48°25' W 123°23'0 0.0
2017-Sep-12 03:30N 48°25' W 123°23'0 0.0
2017-Sep-12 03:00N 48°25' W 123°23'0 0.0
2017-Sep-12 02:30N 48°25' W 123°23'  

Dump ship's entire track history